Time;durP1;ratioP1;P1;durP2;ratioP2;P2;SDS_P1;SDS_P2;PMS_P1;PMS_P2;Temp;Humidity;BMP_temperature;BMP_pressure;BME280_temperature;BME280_humidity;BME280_pressure;Samples;Min_cycle;Max_cycle;Signal;HPM_P1;HPM_P2
2023/01/22 00:00:07;;;;;;;7.80;2.30;;;;;;;;;;6342314;22;20152;-63
2023/01/22 00:02:38;;;;;;;4.22;2.35;;;;;;;;;;6342228;22;20577;-63
2023/01/22 00:05:04;;;;;;;3.65;2.58;;;;;;;;;;6343220;22;20138;-62
2023/01/22 00:07:30;;;;;;;3.90;2.60;;;;;;;;;;6342926;22;20175;-63
2023/01/22 00:09:56;;;;;;;7.30;2.63;;;;;;;;;;6341444;22;20139;-63
2023/01/22 00:12:22;;;;;;;6.80;2.85;;;;;;;;;;6342498;22;20418;-63
2023/01/22 00:14:48;;;;;;;5.53;2.30;;;;;;;;;;6342708;22;20487;-63
2023/01/22 00:17:14;;;;;;;5.57;2.55;;;;;;;;;;6342612;22;20142;-63
2023/01/22 00:19:40;;;;;;;5.97;2.53;;;;;;;;;;6342421;22;20157;-61
2023/01/22 00:22:06;;;;;;;4.90;2.60;;;;;;;;;;6341802;22;20182;-63
2023/01/22 00:24:32;;;;;;;5.25;2.65;;;;;;;;;;6342043;22;20185;-63
2023/01/22 00:26:58;;;;;;;4.50;2.35;;;;;;;;;;6341917;22;20146;-62
2023/01/22 00:29:24;;;;;;;6.25;2.25;;;;;;;;;;6341980;22;20146;-62
2023/01/22 00:31:50;;;;;;;4.20;2.45;;;;;;;;;;6341944;22;20146;-60
2023/01/22 00:34:18;;;;;;;4.93;2.55;;;;;;;;;;6342064;22;20201;-63
2023/01/22 00:36:44;;;;;;;5.10;2.45;;;;;;;;;;6341870;22;20150;-63
2023/01/22 00:39:12;;;;;;;5.03;2.47;;;;;;;;;;6342378;22;20203;-63
2023/01/22 00:41:40;;;;;;;5.30;2.60;;;;;;;;;;6341801;22;20589;-63
2023/01/22 00:44:06;;;;;;;4.25;2.42;;;;;;;;;;6342095;22;20149;-63
2023/01/22 00:46:32;;;;;;;5.50;2.30;;;;;;;;;;6341056;22;20147;-63
2023/01/22 00:48:58;;;;;;;5.35;2.92;;;;;;;;;;6341926;22;20141;-63
2023/01/22 00:51:24;;;;;;;5.90;2.63;;;;;;;;;;6342162;22;20153;-62
2023/01/22 00:53:50;;;;;;;6.28;2.70;;;;;;;;;;6341774;22;20142;-62
2023/01/22 00:56:16;;;;;;;6.80;3.10;;;;;;;;;;6341867;22;20548;-63
2023/01/22 00:58:42;;;;;;;4.80;2.83;;;;;;;;;;6341694;22;20562;-63
2023/01/22 01:01:08;;;;;;;6.88;3.22;;;;;;;;;;6342175;22;20162;-63
2023/01/22 01:03:36;;;;;;;5.57;2.58;;;;;;;;;;6341976;22;20142;-62
2023/01/22 01:06:04;;;;;;;7.80;2.90;;;;;;;;;;6342160;22;20162;-62
2023/01/22 01:08:31;;;;;;;4.63;2.60;;;;;;;;;;6342013;22;20154;-62
2023/01/22 01:10:58;;;;;;;2.88;2.47;;;;;;;;;;6342017;22;20177;-63
2023/01/22 01:13:26;;;;;;;5.97;2.60;;;;;;;;;;6341933;22;20154;-63
2023/01/22 01:16:22;;;;;;;3.03;2.40;;;;;;;;;;6341813;22;20626;-62
2023/01/22 01:18:48;;;;;;;6.97;2.78;;;;;;;;;;6316628;22;20195;-63
2023/01/22 01:21:14;;;;;;;2.97;2.15;;;;;;;;;;6341613;22;20478;-63
2023/01/22 01:23:41;;;;;;;4.20;2.35;;;;;;;;;;6342076;22;20127;-63
2023/01/22 01:26:08;;;;;;;3.70;2.30;;;;;;;;;;6341633;22;20194;-63
2023/01/22 01:28:35;;;;;;;5.65;2.65;;;;;;;;;;6341851;22;20154;-62
2023/01/22 01:31:05;;;;;;;4.28;2.53;;;;;;;;;;6341571;22;20213;-63
2023/01/22 01:33:31;;;;;;;9.20;3.08;;;;;;;;;;6341504;22;20142;-61
2023/01/22 01:35:58;;;;;;;3.42;2.40;;;;;;;;;;6341668;22;20142;-63
2023/01/22 01:38:24;;;;;;;3.83;2.13;;;;;;;;;;6341618;22;20142;-63
2023/01/22 01:40:50;;;;;;;5.05;2.50;;;;;;;;;;6342432;22;20194;-63
2023/01/22 01:43:17;;;;;;;4.75;2.50;;;;;;;;;;6341513;22;20564;-63
2023/01/22 01:45:43;;;;;;;3.78;2.53;;;;;;;;;;6341870;22;20221;-62
2023/01/22 01:48:27;;;;;;;6.78;2.65;;;;;;;;;;6341764;22;20149;-63
2023/01/22 01:50:57;;;;;;;5.80;2.50;;;;;;;;;;6341746;22;20157;-63
2023/01/22 01:53:24;;;;;;;4.30;2.35;;;;;;;;;;6341279;22;20445;-63
2023/01/22 01:55:50;;;;;;;3.55;2.40;;;;;;;;;;6341625;22;20171;-63
2023/01/22 01:58:20;;;;;;;3.53;1.90;;;;;;;;;;6341639;22;20237;-63
2023/01/22 02:00:47;;;;;;;5.13;2.50;;;;;;;;;;6341882;22;20250;-63
2023/01/22 02:03:13;;;;;;;4.18;2.30;;;;;;;;;;6352032;22;20142;-62
2023/01/22 02:05:39;;;;;;;4.13;2.63;;;;;;;;;;6352400;22;20139;-63
2023/01/22 02:08:06;;;;;;;3.83;2.38;;;;;;;;;;6357404;22;20210;-63
2023/01/22 02:10:32;;;;;;;4.47;2.75;;;;;;;;;;6358642;22;20142;-63
2023/01/22 02:13:04;;;;;;;5.68;2.45;;;;;;;;;;6356709;22;20150;-63
2023/01/22 02:15:29;;;;;;;7.47;2.72;;;;;;;;;;6356402;22;20130;-63
2023/01/22 02:17:55;;;;;;;6.32;2.53;;;;;;;;;;6346693;22;20149;-63
2023/01/22 02:20:21;;;;;;;5.07;2.72;;;;;;;;;;6342965;22;20209;-62
2023/01/22 02:22:48;;;;;;;8.23;3.28;;;;;;;;;;6341487;22;20158;-61
2023/01/22 02:25:14;;;;;;;5.97;2.42;;;;;;;;;;6340632;22;20246;-61
2023/01/22 02:27:40;;;;;;;5.60;2.13;;;;;;;;;;6341078;22;20560;-63
2023/01/22 02:30:07;;;;;;;6.28;2.75;;;;;;;;;;6341387;22;20165;-63
2023/01/22 02:32:33;;;;;;;4.20;2.50;;;;;;;;;;6341096;22;20139;-63
2023/01/22 02:34:59;;;;;;;5.60;2.67;;;;;;;;;;6341361;22;20138;-63
2023/01/22 02:37:25;;;;;;;4.05;2.50;;;;;;;;;;6341446;22;20232;-63
2023/01/22 02:39:51;;;;;;;5.85;2.42;;;;;;;;;;6341853;22;20664;-63
2023/01/22 02:42:17;;;;;;;7.40;2.70;;;;;;;;;;6341237;22;20263;-63
2023/01/22 02:44:43;;;;;;;3.65;2.22;;;;;;;;;;6341357;22;20276;-63
2023/01/22 02:47:09;;;;;;;8.15;2.65;;;;;;;;;;6341013;22;20142;-63
2023/01/22 02:49:35;;;;;;;4.55;2.55;;;;;;;;;;6341339;22;20165;-62
2023/01/22 02:52:01;;;;;;;4.63;2.17;;;;;;;;;;6341174;22;20142;-63
2023/01/22 02:54:27;;;;;;;5.35;2.50;;;;;;;;;;6340975;22;20461;-62
2023/01/22 02:56:55;;;;;;;5.18;2.58;;;;;;;;;;6341085;22;20142;-63
2023/01/22 02:59:23;;;;;;;5.10;2.65;;;;;;;;;;6340839;22;20146;-62
2023/01/22 03:01:49;;;;;;;4.25;2.53;;;;;;;;;;6341439;22;20180;-63
2023/01/22 03:04:15;;;;;;;6.47;3.00;;;;;;;;;;6341226;22;20166;-63
2023/01/22 03:06:43;;;;;;;5.18;2.60;;;;;;;;;;6340928;22;20165;-63
2023/01/22 03:09:09;;;;;;;6.82;2.97;;;;;;;;;;6340818;22;20537;-61
2023/01/22 03:11:35;;;;;;;5.45;2.78;;;;;;;;;;6340960;22;20173;-63
2023/01/22 03:22:16;;;;;;;6.85;2.38;;;;;;;;;;6361754;22;20196;-63
2023/01/22 03:24:42;;;;;;;6.18;2.58;;;;;;;;;;6359748;22;20142;-63
2023/01/22 03:27:08;;;;;;;6.05;2.67;;;;;;;;;;6363186;22;20216;-63
2023/01/22 03:29:37;;;;;;;8.40;2.38;;;;;;;;;;6353005;22;20199;-63
2023/01/22 03:32:04;;;;;;;4.70;2.33;;;;;;;;;;6352075;22;20176;-63
2023/01/22 03:34:30;;;;;;;4.55;2.53;;;;;;;;;;6347590;22;20146;-63
2023/01/22 03:36:56;;;;;;;5.38;2.17;;;;;;;;;;6345845;22;20667;-63
2023/01/22 03:39:22;;;;;;;9.38;2.55;;;;;;;;;;6344064;22;20165;-61
2023/01/22 03:41:48;;;;;;;9.55;2.80;;;;;;;;;;6343013;22;20162;-62
2023/01/22 03:44:14;;;;;;;7.55;2.90;;;;;;;;;;6342679;22;20161;-61
2023/01/22 03:46:40;;;;;;;4.25;2.65;;;;;;;;;;6342634;22;20149;-60
2023/01/22 03:49:06;;;;;;;5.15;2.50;;;;;;;;;;6341881;22;20232;-62
2023/01/22 03:51:32;;;;;;;4.03;2.40;;;;;;;;;;6342533;22;20217;-62
2023/01/22 03:53:58;;;;;;;4.90;2.70;;;;;;;;;;6342546;22;20203;-62
2023/01/22 03:56:25;;;;;;;5.43;2.17;;;;;;;;;;6344026;22;20142;-63
2023/01/22 03:58:51;;;;;;;3.17;2.10;;;;;;;;;;6342310;22;20153;-62
2023/01/22 04:01:19;;;;;;;5.65;2.25;;;;;;;;;;6342301;22;20245;-63
2023/01/22 04:03:45;;;;;;;4.93;1.77;;;;;;;;;;6342678;22;20610;-62
2023/01/22 04:06:11;;;;;;;4.43;2.08;;;;;;;;;;6342578;22;20209;-62
2023/01/22 04:08:38;;;;;;;4.28;2.03;;;;;;;;;;6342659;22;20162;-63
2023/01/22 04:11:04;;;;;;;2.75;1.70;;;;;;;;;;6342764;22;20166;-63
2023/01/22 04:13:31;;;;;;;3.33;1.90;;;;;;;;;;6342627;22;20150;-63
2023/01/22 04:15:57;;;;;;;5.35;2.03;;;;;;;;;;6342260;22;20166;-63
2023/01/22 04:18:23;;;;;;;7.25;2.30;;;;;;;;;;6342291;22;20217;-63
2023/01/22 04:20:50;;;;;;;4.45;2.13;;;;;;;;;;6341902;22;20215;-63
2023/01/22 04:23:16;;;;;;;5.03;1.90;;;;;;;;;;6343103;22;20134;-63
2023/01/22 04:25:42;;;;;;;4.32;2.20;;;;;;;;;;6342042;22;20134;-62
2023/01/22 04:28:09;;;;;;;3.67;1.30;;;;;;;;;;6341469;22;20185;-63
2023/01/22 04:30:35;;;;;;;5.75;2.08;;;;;;;;;;6342016;22;20492;-63
2023/01/22 04:33:01;;;;;;;5.07;1.60;;;;;;;;;;6342069;22;20545;-63
2023/01/22 04:35:28;;;;;;;5.45;1.90;;;;;;;;;;6341902;22;20207;-63
2023/01/22 04:37:54;;;;;;;5.03;1.88;;;;;;;;;;6342370;22;20142;-62
2023/01/22 04:40:20;;;;;;;4.28;1.88;;;;;;;;;;6342149;22;20198;-63
2023/01/22 04:42:46;;;;;;;3.47;1.75;;;;;;;;;;6342244;22;20196;-63
2023/01/22 04:45:12;;;;;;;6.90;1.70;;;;;;;;;;6341095;22;20168;-63
2023/01/22 04:47:43;;;;;;;5.13;2.00;;;;;;;;;;6341907;22;20134;-62
2023/01/22 04:50:12;;;;;;;4.10;1.90;;;;;;;;;;6341890;22;20549;-62
2023/01/22 04:52:38;;;;;;;6.15;2.28;;;;;;;;;;6342259;22;20153;-63
2023/01/22 04:55:05;;;;;;;5.78;1.95;;;;;;;;;;6341956;22;20142;-62
2023/01/22 04:57:31;;;;;;;3.85;1.77;;;;;;;;;;6341193;22;20229;-63
2023/01/22 04:59:57;;;;;;;3.10;1.90;;;;;;;;;;6342048;22;20227;-62
2023/01/22 05:02:22;;;;;;;3.38;1.75;;;;;;;;;;6341752;22;20169;-62
2023/01/22 05:04:48;;;;;;;3.13;1.67;;;;;;;;;;6341656;22;20161;-63
2023/01/22 05:07:14;;;;;;;4.00;1.70;;;;;;;;;;6342166;22;20191;-62
2023/01/22 05:09:41;;;;;;;6.80;1.80;;;;;;;;;;6342133;22;20177;-62
2023/01/22 05:12:07;;;;;;;5.75;1.90;;;;;;;;;;6342197;22;20150;-60
2023/01/22 05:14:32;;;;;;;2.90;1.30;;;;;;;;;;6342203;22;20146;-61
2023/01/22 05:16:58;;;;;;;5.55;2.00;;;;;;;;;;6341977;22;20418;-63
2023/01/22 05:19:24;;;;;;;6.07;2.42;;;;;;;;;;6342568;22;20173;-62
2023/01/22 05:21:50;;;;;;;6.28;1.73;;;;;;;;;;6342106;22;20200;-63
2023/01/22 05:24:17;;;;;;;5.65;1.85;;;;;;;;;;6342075;22;20162;-61
2023/01/22 05:26:43;;;;;;;4.00;2.00;;;;;;;;;;6342229;22;20134;-62
2023/01/22 05:29:09;;;;;;;3.72;1.80;;;;;;;;;;6342096;22;20217;-62
2023/01/22 05:31:35;;;;;;;3.08;1.50;;;;;;;;;;6341680;22;20146;-61
2023/01/22 05:34:02;;;;;;;3.45;1.63;;;;;;;;;;6342238;22;20244;-62
2023/01/22 05:36:28;;;;;;;4.78;1.58;;;;;;;;;;6341609;22;20142;-62
2023/01/22 05:38:53;;;;;;;4.75;2.00;;;;;;;;;;6343736;22;20157;-63
2023/01/22 05:41:19;;;;;;;5.43;1.77;;;;;;;;;;6351062;22;20225;-63
2023/01/22 05:43:46;;;;;;;4.85;1.30;;;;;;;;;;6351956;22;20138;-61
2023/01/22 05:46:12;;;;;;;2.60;1.42;;;;;;;;;;6347588;22;20149;-63
2023/01/22 05:48:38;;;;;;;4.40;1.65;;;;;;;;;;6352876;22;20152;-62
2023/01/22 05:51:05;;;;;;;5.65;1.70;;;;;;;;;;6352297;22;20157;-63
2023/01/22 05:53:31;;;;;;;4.20;1.80;;;;;;;;;;6354402;22;20146;-63
2023/01/22 05:56:01;;;;;;;5.28;1.65;;;;;;;;;;6343103;22;20160;-62
2023/01/22 05:58:28;;;;;;;3.78;1.75;;;;;;;;;;6342908;22;20166;-63
2023/01/22 06:00:54;;;;;;;3.28;1.63;;;;;;;;;;6341788;22;20181;-62
2023/01/22 06:03:19;;;;;;;4.38;1.60;;;;;;;;;;6341753;22;20142;-62
2023/01/22 06:05:45;;;;;;;3.80;1.55;;;;;;;;;;6341199;22;20160;-63
2023/01/22 06:08:11;;;;;;;6.13;1.80;;;;;;;;;;6341369;22;20138;-63
2023/01/22 06:10:37;;;;;;;4.85;1.67;;;;;;;;;;6342006;22;20156;-62
2023/01/22 06:13:04;;;;;;;4.30;1.67;;;;;;;;;;6341880;22;20225;-63
2023/01/22 06:15:29;;;;;;;4.47;1.88;;;;;;;;;;6341614;22;20195;-63
2023/01/22 06:18:00;;;;;;;4.00;1.73;;;;;;;;;;6341503;22;20150;-63
2023/01/22 06:20:26;;;;;;;3.67;1.55;;;;;;;;;;6341597;22;20170;-63
2023/01/22 06:22:52;;;;;;;3.13;1.60;;;;;;;;;;6341025;22;20153;-63
2023/01/22 06:25:18;;;;;;;4.60;2.00;;;;;;;;;;6341520;22;20137;-62
2023/01/22 06:27:45;;;;;;;3.60;1.35;;;;;;;;;;6341218;22;20189;-63
2023/01/22 06:30:11;;;;;;;6.45;1.55;;;;;;;;;;6366253;22;20149;-62
2023/01/22 06:32:37;;;;;;;2.70;1.33;;;;;;;;;;6341192;22;20134;-62
2023/01/22 06:35:03;;;;;;;4.47;1.35;;;;;;;;;;6341664;22;20584;-63
2023/01/22 06:37:29;;;;;;;5.93;2.00;;;;;;;;;;6341089;22;20440;-62
2023/01/22 06:39:55;;;;;;;3.40;1.30;;;;;;;;;;6341192;22;20173;-63
2023/01/22 06:42:21;;;;;;;4.55;1.55;;;;;;;;;;6341226;22;20168;-62
2023/01/22 06:44:50;;;;;;;3.60;1.50;;;;;;;;;;6365995;22;20148;-62
2023/01/22 06:47:16;;;;;;;5.78;1.40;;;;;;;;;;6341394;22;20149;-61
2023/01/22 06:49:42;;;;;;;5.95;1.52;;;;;;;;;;6341373;22;20139;-62
2023/01/22 06:52:09;;;;;;;4.65;1.60;;;;;;;;;;6342450;22;20146;-63
2023/01/22 06:54:35;;;;;;;4.32;1.65;;;;;;;;;;6343050;22;20150;-64
2023/01/22 06:57:01;;;;;;;4.20;1.25;;;;;;;;;;6343405;22;20192;-62
2023/01/22 06:59:27;;;;;;;3.58;1.38;;;;;;;;;;6343422;22;20209;-62
2023/01/22 07:01:53;;;;;;;4.13;1.30;;;;;;;;;;6343073;22;20169;-63
2023/01/22 07:04:19;;;;;;;2.67;1.15;;;;;;;;;;6343341;22;20174;-63
2023/01/22 07:06:45;;;;;;;1.83;1.17;;;;;;;;;;6343086;22;20142;-63
2023/01/22 07:09:11;;;;;;;2.97;1.20;;;;;;;;;;6343270;22;20533;-64
2023/01/22 07:11:37;;;;;;;6.18;1.60;;;;;;;;;;6343061;22;20200;-62
2023/01/22 07:14:03;;;;;;;6.53;1.40;;;;;;;;;;6343134;22;20545;-63
2023/01/22 07:16:29;;;;;;;4.07;1.38;;;;;;;;;;6343133;22;20142;-63
2023/01/22 07:18:55;;;;;;;2.42;1.13;;;;;;;;;;6343216;22;20206;-62
2023/01/22 07:21:21;;;;;;;2.42;1.10;;;;;;;;;;6342487;22;20178;-62
2023/01/22 07:23:47;;;;;;;2.47;1.13;;;;;;;;;;6342183;22;20130;-63
2023/01/22 07:26:13;;;;;;;4.72;1.25;;;;;;;;;;6342594;22;20533;-63
2023/01/22 07:28:40;;;;;;;2.67;1.42;;;;;;;;;;6343114;22;20161;-62
2023/01/22 07:31:09;;;;;;;5.82;1.27;;;;;;;;;;6342843;22;20177;-62
2023/01/22 07:33:34;;;;;;;3.20;1.40;;;;;;;;;;6347161;22;20158;-63
2023/01/22 07:36:00;;;;;;;3.97;1.30;;;;;;;;;;6367213;22;20150;-62
2023/01/22 07:38:28;;;;;;;4.63;1.48;;;;;;;;;;6366569;22;20168;-63
2023/01/22 07:40:54;;;;;;;3.72;1.40;;;;;;;;;;6359158;22;20174;-63
2023/01/22 07:43:20;;;;;;;4.50;1.35;;;;;;;;;;6352191;22;20249;-63
2023/01/22 07:45:46;;;;;;;2.42;1.17;;;;;;;;;;6350464;22;20146;-62
2023/01/22 07:48:12;;;;;;;3.50;1.25;;;;;;;;;;6345600;22;20139;-63
2023/01/22 07:50:39;;;;;;;3.65;1.17;;;;;;;;;;6344737;22;20142;-63
2023/01/22 07:53:06;;;;;;;2.90;1.30;;;;;;;;;;6342668;22;20420;-62
2023/01/22 07:55:32;;;;;;;4.00;1.20;;;;;;;;;;6342759;22;20142;-63
2023/01/22 07:57:59;;;;;;;3.78;1.38;;;;;;;;;;6342623;22;20143;-61
2023/01/22 08:00:25;;;;;;;7.35;1.50;;;;;;;;;;6343275;22;20530;-63
2023/01/22 08:02:51;;;;;;;6.88;1.52;;;;;;;;;;6342092;22;20138;-62
2023/01/22 08:05:17;;;;;;;5.15;1.25;;;;;;;;;;6342212;22;20134;-63
2023/01/22 08:07:43;;;;;;;7.70;1.40;;;;;;;;;;6342111;22;20599;-62
2023/01/22 08:10:13;;;;;;;4.30;1.30;;;;;;;;;;6342508;22;20424;-61
2023/01/22 08:12:42;;;;;;;4.15;1.20;;;;;;;;;;6342611;22;20173;-62
2023/01/22 08:15:08;;;;;;;6.53;1.30;;;;;;;;;;6367335;22;20595;-63
2023/01/22 08:17:34;;;;;;;4.95;1.35;;;;;;;;;;6342106;22;20217;-63
2023/01/22 08:20:00;;;;;;;2.35;1.10;;;;;;;;;;6342293;22;20138;-63
2023/01/22 08:22:26;;;;;;;3.28;1.25;;;;;;;;;;6341848;22;20182;-63
2023/01/22 08:24:53;;;;;;;5.75;1.35;;;;;;;;;;6342278;22;20221;-63
2023/01/22 08:27:20;;;;;;;3.22;1.20;;;;;;;;;;6343146;22;20142;-63
2023/01/22 08:29:46;;;;;;;3.90;1.23;;;;;;;;;;6342356;22;20220;-63
2023/01/22 08:32:13;;;;;;;3.60;1.15;;;;;;;;;;6342351;22;20146;-63
2023/01/22 08:34:39;;;;;;;3.75;1.23;;;;;;;;;;6342332;22;20150;-62
2023/01/22 08:37:06;;;;;;;5.80;1.55;;;;;;;;;;6342374;22;20161;-63
2023/01/22 08:39:32;;;;;;;2.88;0.88;;;;;;;;;;6342468;22;20189;-63
2023/01/22 08:41:58;;;;;;;6.40;1.45;;;;;;;;;;6342231;22;20174;-63
2023/01/22 08:44:24;;;;;;;3.38;1.20;;;;;;;;;;6342312;22;20151;-62
2023/01/22 08:46:50;;;;;;;2.75;1.40;;;;;;;;;;6342341;22;20146;-63
2023/01/22 08:49:17;;;;;;;4.63;1.25;;;;;;;;;;6342508;22;20142;-63
2023/01/22 08:51:43;;;;;;;6.07;1.23;;;;;;;;;;6342325;22;20142;-63
2023/01/22 08:54:09;;;;;;;2.90;1.05;;;;;;;;;;6341781;22;20214;-63
2023/01/22 08:56:35;;;;;;;4.22;1.45;;;;;;;;;;6342171;22;20177;-63
2023/01/22 08:59:05;;;;;;;6.28;1.40;;;;;;;;;;6341732;22;20184;-64
2023/01/22 09:01:32;;;;;;;3.67;1.35;;;;;;;;;;6342151;22;20171;-63
2023/01/22 09:03:58;;;;;;;4.40;1.40;;;;;;;;;;6341283;22;20150;-62
2023/01/22 09:06:25;;;;;;;3.72;1.25;;;;;;;;;;6342277;22;20153;-64
2023/01/22 09:08:51;;;;;;;4.07;1.20;;;;;;;;;;6341933;22;20560;-63
2023/01/22 09:11:17;;;;;;;4.18;1.38;;;;;;;;;;6341934;22;20553;-64
2023/01/22 09:13:43;;;;;;;7.30;1.30;;;;;;;;;;6346275;22;20149;-62
2023/01/22 09:16:09;;;;;;;5.63;1.55;;;;;;;;;;6355844;22;20147;-63
2023/01/22 09:18:36;;;;;;;7.80;1.52;;;;;;;;;;6345910;22;20538;-63
2023/01/22 09:21:05;;;;;;;3.25;1.10;;;;;;;;;;6348726;22;20174;-63
2023/01/22 09:23:31;;;;;;;2.78;1.02;;;;;;;;;;6360029;22;20157;-63
2023/01/22 09:25:56;;;;;;;2.17;1.10;;;;;;;;;;6353772;22;20549;-63
2023/01/22 09:28:24;;;;;;;2.60;1.00;;;;;;;;;;6355422;22;20149;-64
2023/01/22 09:30:50;;;;;;;4.18;1.27;;;;;;;;;;6342732;22;20142;-63
2023/01/22 09:33:16;;;;;;;3.42;0.93;;;;;;;;;;6342053;22;20449;-63
2023/01/22 09:35:42;;;;;;;7.13;1.48;;;;;;;;;;6342696;22;20495;-63
2023/01/22 09:38:12;;;;;;;5.43;1.17;;;;;;;;;;6341791;22;20142;-60
2023/01/22 09:40:47;;;;;;;2.50;1.20;;;;;;;;;;6341479;22;20169;-62
2023/01/22 09:43:16;;;;;;;5.50;1.02;;;;;;;;;;6341655;22;20184;-63
2023/01/22 09:45:42;;;;;;;4.20;1.10;;;;;;;;;;6341537;22;20162;-62
2023/01/22 09:48:12;;;;;;;3.85;1.02;;;;;;;;;;6341441;22;20142;-62
2023/01/22 09:50:39;;;;;;;6.03;1.42;;;;;;;;;;6341345;22;20640;-63
2023/01/22 09:53:07;;;;;;;5.18;1.50;;;;;;;;;;6341779;22;20210;-61
2023/01/22 09:55:36;;;;;;;3.47;1.35;;;;;;;;;;6341793;22;20156;-64
2023/01/22 09:58:04;;;;;;;4.43;1.10;;;;;;;;;;6342420;22;20153;-64
2023/01/22 10:00:33;;;;;;;3.13;1.33;;;;;;;;;;6341674;22;20161;-64
2023/01/22 10:03:01;;;;;;;3.78;1.20;;;;;;;;;;6341812;22;20138;-64
2023/01/22 10:05:38;;;;;;;4.60;1.45;;;;;;;;;;6341783;22;20198;-64
2023/01/22 10:08:11;;;;;;;4.15;1.20;;;;;;;;;;6341401;22;20526;-63
2023/01/22 10:10:37;;;;;;;3.88;1.20;;;;;;;;;;6341408;22;20452;-62
2023/01/22 10:13:10;;;;;;;8.38;1.40;;;;;;;;;;6341320;22;20176;-62
2023/01/22 10:15:36;;;;;;;7.85;1.38;;;;;;;;;;6341998;22;20134;-63
2023/01/22 10:18:05;;;;;;;4.30;1.27;;;;;;;;;;6341262;22;20142;-64
2023/01/22 10:20:32;;;;;;;4.82;1.33;;;;;;;;;;6341219;22;20607;-63
2023/01/22 10:23:11;;;;;;;4.95;1.58;;;;;;;;;;6342037;22;20173;-64
2023/01/22 10:25:37;;;;;;;3.08;1.17;;;;;;;;;;6341685;22;20133;-63
2023/01/22 10:28:03;;;;;;;6.28;1.20;;;;;;;;;;6341706;22;20158;-62
2023/01/22 10:30:29;;;;;;;3.80;1.10;;;;;;;;;;6341362;22;20142;-63
2023/01/22 10:33:00;;;;;;;2.25;1.05;;;;;;;;;;6341895;22;20203;-63
2023/01/22 10:35:26;;;;;;;5.20;1.08;;;;;;;;;;6341285;22;20150;-63
2023/01/22 10:37:53;;;;;;;2.95;0.90;;;;;;;;;;6342272;22;20167;-62
2023/01/22 10:40:23;;;;;;;3.05;1.35;;;;;;;;;;6340128;22;20586;-64
2023/01/22 10:43:09;;;;;;;8.43;1.45;;;;;;;;;;6341613;22;20130;-63
2023/01/22 10:45:35;;;;;;;3.85;1.40;;;;;;;;;;6341301;22;20146;-64
2023/01/22 10:48:10;;;;;;;3.40;1.30;;;;;;;;;;6341499;22;20153;-64
2023/01/22 10:50:36;;;;;;;4.20;1.38;;;;;;;;;;6341744;22;20138;-64
2023/01/22 10:53:03;;;;;;;2.40;0.98;;;;;;;;;;6340994;22;20207;-63
2023/01/22 10:55:32;;;;;;;3.63;1.30;;;;;;;;;;6341329;22;20142;-63
2023/01/22 10:58:03;;;;;;;3.30;1.25;;;;;;;;;;6340473;22;20546;-63
2023/01/22 11:00:34;;;;;;;1.48;0.98;;;;;;;;;;6341100;22;20161;-63
2023/01/22 11:03:00;;;;;;;3.35;1.20;;;;;;;;;;6341316;22;20139;-63
2023/01/22 11:05:27;;;;;;;2.45;1.00;;;;;;;;;;6341320;22;20173;-63
2023/01/22 11:08:14;;;;;;;1.95;1.30;;;;;;;;;;6341596;22;20149;-59
2023/01/22 11:11:09;;;;;;;5.72;1.20;;;;;;;;;;6341067;22;20500;-63
2023/01/22 11:13:42;;;;;;;4.05;1.20;;;;;;;;;;6315337;22;20211;-63
2023/01/22 11:16:19;;;;;;;3.38;1.15;;;;;;;;;;6341525;22;20183;-64
2023/01/22 11:18:48;;;;;;;3.80;1.50;;;;;;;;;;6341036;22;20462;-62
2023/01/22 11:21:19;;;;;;;3.08;1.45;;;;;;;;;;6341202;22;20185;-63
2023/01/22 11:24:02;;;;;;;4.75;1.52;;;;;;;;;;6341399;22;20141;-60
2023/01/22 11:26:38;;;;;;;2.42;1.10;;;;;;;;;;6341710;22;20148;-62
2023/01/22 11:29:23;;;;;;;3.47;1.40;;;;;;;;;;6341838;22;20419;-61
2023/01/22 11:31:55;;;;;;;4.15;1.10;;;;;;;;;;6341443;22;20185;-62
2023/01/22 11:34:24;;;;;;;3.00;1.20;;;;;;;;;;6340752;22;20155;-63
2023/01/22 11:37:08;;;;;;;4.78;1.20;;;;;;;;;;6341810;22;20418;-63
2023/01/22 11:39:53;;;;;;;8.13;1.20;;;;;;;;;;6342690;22;20215;-63
2023/01/22 11:42:30;;;;;;;3.03;1.13;;;;;;;;;;6343131;22;20166;-63
2023/01/22 11:45:04;;;;;;;2.08;1.25;;;;;;;;;;6342793;22;20221;-62
2023/01/22 11:47:39;;;;;;;3.08;1.48;;;;;;;;;;6343737;22;20130;-61
2023/01/22 11:50:19;;;;;;;2.08;1.27;;;;;;;;;;6343375;22;20146;-63
2023/01/22 11:53:13;;;;;;;4.57;1.55;;;;;;;;;;6354523;22;20644;-64
2023/01/22 11:55:53;;;;;;;3.67;1.40;;;;;;;;;;6298413;22;20150;-63
2023/01/22 11:58:33;;;;;;;3.15;1.10;;;;;;;;;;6344090;22;20146;-64
2023/01/22 12:01:08;;;;;;;2.42;1.02;;;;;;;;;;6344084;22;20177;-64
2023/01/22 12:03:49;;;;;;;4.70;1.10;;;;;;;;;;6344039;22;20533;-63
2023/01/22 12:06:24;;;;;;;2.92;1.17;;;;;;;;;;6343223;22;20263;-63
2023/01/22 12:08:59;;;;;;;3.72;1.25;;;;;;;;;;6342915;22;20141;-63
2023/01/22 12:11:38;;;;;;;4.47;1.42;;;;;;;;;;6342537;22;20149;-61
2023/01/22 12:14:12;;;;;;;2.45;0.98;;;;;;;;;;6342974;22;20165;-64
2023/01/22 12:16:56;;;;;;;5.57;1.42;;;;;;;;;;6343173;22;20491;-64
2023/01/22 12:19:39;;;;;;;2.25;1.40;;;;;;;;;;6342227;22;20213;-63
2023/01/22 12:22:13;;;;;;;3.22;0.90;;;;;;;;;;6342524;22;20265;-64
2023/01/22 12:24:43;;;;;;;1.77;0.90;;;;;;;;;;6341416;22;20455;-64
2023/01/22 12:27:15;;;;;;;3.60;1.33;;;;;;;;;;6343118;22;20145;-61
2023/01/22 12:29:43;;;;;;;2.00;1.10;;;;;;;;;;6342821;22;20138;-64
2023/01/22 12:32:11;;;;;;;3.65;1.33;;;;;;;;;;6342653;22;20142;-63
2023/01/22 12:34:59;;;;;;;1.63;1.27;;;;;;;;;;6342570;22;20146;-63
2023/01/22 12:37:29;;;;;;;2.28;1.10;;;;;;;;;;6342904;22;20150;-62
2023/01/22 12:40:18;;;;;;;3.63;1.17;;;;;;;;;;6342682;22;20138;-63
2023/01/22 12:43:00;;;;;;;2.55;1.00;;;;;;;;;;6341492;22;20158;-62
2023/01/22 12:45:45;;;;;;;2.05;0.90;;;;;;;;;;6342519;22;20146;-64
2023/01/22 12:48:11;;;;;;;3.25;1.25;;;;;;;;;;6341876;22;20143;-64
2023/01/22 12:50:47;;;;;;;3.03;1.35;;;;;;;;;;6342588;22;20138;-63
2023/01/22 12:53:22;;;;;;;3.47;1.40;;;;;;;;;;6342964;22;20168;-63
2023/01/22 12:55:57;;;;;;;1.98;1.35;;;;;;;;;;6345733;22;20137;-62
2023/01/22 12:58:25;;;;;;;3.00;1.40;;;;;;;;;;6360300;22;20142;-64
2023/01/22 13:01:01;;;;;;;1.65;0.98;;;;;;;;;;6359282;22;20166;-62
2023/01/22 13:03:28;;;;;;;4.63;1.58;;;;;;;;;;6357867;22;20141;-63
2023/01/22 13:05:54;;;;;;;4.00;1.50;;;;;;;;;;6353854;22;20187;-63
2023/01/22 13:08:20;;;;;;;2.33;1.02;;;;;;;;;;6352021;22;20501;-63
2023/01/22 13:11:06;;;;;;;3.38;1.20;;;;;;;;;;6348843;22;20162;-63
2023/01/22 13:13:41;;;;;;;5.68;1.15;;;;;;;;;;6343827;22;20148;-62
2023/01/22 13:16:16;;;;;;;3.05;1.13;;;;;;;;;;6342707;22;20157;-63
2023/01/22 13:18:50;;;;;;;4.50;0.93;;;;;;;;;;6342152;22;20131;-62
2023/01/22 13:21:17;;;;;;;2.03;1.08;;;;;;;;;;6341397;22;20174;-61
2023/01/22 13:23:46;;;;;;;2.95;1.20;;;;;;;;;;6342488;22;20158;-61
2023/01/22 13:26:23;;;;;;;2.40;1.15;;;;;;;;;;6342231;22;20148;-63
2023/01/22 13:28:55;;;;;;;3.88;1.30;;;;;;;;;;6342210;22;20478;-63
2023/01/22 13:31:21;;;;;;;2.58;1.15;;;;;;;;;;6342181;22;20201;-63
2023/01/22 13:34:07;;;;;;;2.35;1.30;;;;;;;;;;6342305;22;20154;-63
2023/01/22 13:36:34;;;;;;;3.00;1.40;;;;;;;;;;6342195;22;20135;-63
2023/01/22 13:39:00;;;;;;;2.60;1.30;;;;;;;;;;6341904;22;20167;-63
2023/01/22 13:41:32;;;;;;;3.42;1.50;;;;;;;;;;6341951;22;20189;-63
2023/01/22 13:43:58;;;;;;;4.05;1.75;;;;;;;;;;6341786;22;20134;-62
2023/01/22 13:46:25;;;;;;;3.13;1.38;;;;;;;;;;6341970;22;20195;-64
2023/01/22 13:49:20;;;;;;;2.13;1.40;;;;;;;;;;6342217;22;20142;-63
2023/01/22 13:51:46;;;;;;;2.00;1.25;;;;;;;;;;6315295;22;20154;-64
2023/01/22 13:54:18;;;;;;;3.65;1.45;;;;;;;;;;6341986;22;20214;-63
2023/01/22 13:56:44;;;;;;;1.92;1.30;;;;;;;;;;6341930;22;20181;-63
2023/01/22 13:59:17;;;;;;;3.00;1.70;;;;;;;;;;6341509;22;20138;-63
2023/01/22 14:01:44;;;;;;;3.65;1.58;;;;;;;;;;6341375;22;20440;-61
2023/01/22 14:04:26;;;;;;;6.25;1.80;;;;;;;;;;6342014;22;20142;-64
2023/01/22 14:06:52;;;;;;;2.33;1.50;;;;;;;;;;6341462;22;20587;-62
2023/01/22 14:09:45;;;;;;;2.85;1.75;;;;;;;;;;6341682;22;20549;-61
2023/01/22 14:12:14;;;;;;;2.50;1.80;;;;;;;;;;6336359;22;20142;-64
2023/01/22 14:14:42;;;;;;;5.85;2.30;;;;;;;;;;6342652;22;20185;-63
2023/01/22 14:17:08;;;;;;;2.28;1.50;;;;;;;;;;6342626;22;20142;-64
2023/01/22 14:19:34;;;;;;;3.95;2.30;;;;;;;;;;6341880;22;20174;-63
2023/01/22 14:22:00;;;;;;;2.10;1.58;;;;;;;;;;6340876;22;20173;-64
2023/01/22 14:24:25;;;;;;;5.57;1.83;;;;;;;;;;6341344;22;20542;-65
2023/01/22 14:26:53;;;;;;;3.75;1.65;;;;;;;;;;6341250;22;20138;-64
2023/01/22 14:29:20;;;;;;;3.28;1.40;;;;;;;;;;6342522;22;20142;-64
2023/01/22 14:31:46;;;;;;;2.80;1.70;;;;;;;;;;6340685;22;20580;-64
2023/01/22 14:34:12;;;;;;;2.53;1.30;;;;;;;;;;6340807;22;20142;-63
2023/01/22 14:36:38;;;;;;;2.10;1.40;;;;;;;;;;6340946;22;20146;-64
2023/01/22 14:39:06;;;;;;;4.60;1.33;;;;;;;;;;6341481;22;20557;-63
2023/01/22 14:41:32;;;;;;;2.75;1.40;;;;;;;;;;6339478;22;20612;-63
2023/01/22 14:43:58;;;;;;;2.00;1.40;;;;;;;;;;6340607;22;20146;-63
2023/01/22 14:46:24;;;;;;;2.33;1.63;;;;;;;;;;6340685;22;20134;-63
2023/01/22 14:48:52;;;;;;;3.03;1.77;;;;;;;;;;6340886;22;20146;-63
2023/01/22 14:51:17;;;;;;;4.60;2.03;;;;;;;;;;6340985;22;20146;-63
2023/01/22 14:53:44;;;;;;;2.72;1.55;;;;;;;;;;6340747;22;20165;-63
2023/01/22 14:56:10;;;;;;;3.03;1.73;;;;;;;;;;6340415;22;20162;-61
2023/01/22 14:58:36;;;;;;;2.03;1.50;;;;;;;;;;6340377;22;20150;-62